createdAt,value
2023-04-16T00:01:31.100Z,8.94
2023-04-16T00:05:23.801Z,8.96
2023-04-16T00:08:59.109Z,8.98
2023-04-16T00:12:31.950Z,8.98
2023-04-16T00:16:00.050Z,8.99
2023-04-16T00:19:35.477Z,8.97
2023-04-16T00:23:30.712Z,8.95
2023-04-16T00:26:57.132Z,8.89
2023-04-16T00:30:45.199Z,8.85
2023-04-16T00:34:19.638Z,8.87
2023-04-16T00:37:54.971Z,8.85
2023-04-16T00:41:40.399Z,8.80
2023-04-16T00:45:19.236Z,8.78
2023-04-16T00:49:13.189Z,8.78
2023-04-16T00:52:35.168Z,8.77
2023-04-16T00:56:12.398Z,8.78
2023-04-16T00:59:49.164Z,8.76
2023-04-16T01:03:26.521Z,8.75
2023-04-16T01:07:03.470Z,8.73
2023-04-16T01:10:47.980Z,8.69
2023-04-16T01:14:24.823Z,8.66
2023-04-16T01:18:17.945Z,8.65
2023-04-16T01:21:47.295Z,8.65
2023-04-16T01:25:23.202Z,8.57
2023-04-16T01:29:17.802Z,8.59
2023-04-16T01:32:46.000Z,8.57
2023-04-16T01:36:33.557Z,8.55
2023-04-16T01:39:59.460Z,8.53
2023-04-16T01:43:43.975Z,8.49
2023-04-16T01:47:26.773Z,8.48
2023-04-16T01:51:10.280Z,8.48
2023-04-16T01:54:53.098Z,8.53
2023-04-16T01:58:38.569Z,8.56
2023-04-16T02:02:28.425Z,8.55
2023-04-16T02:06:11.038Z,8.58
2023-04-16T02:09:30.970Z,8.60
2023-04-16T02:13:08.754Z,8.59
2023-04-16T02:16:46.768Z,8.56
2023-04-16T02:20:32.012Z,8.49
2023-04-16T02:24:02.085Z,8.52
2023-04-16T02:27:40.615Z,8.54
2023-04-16T02:31:19.697Z,8.56
2023-04-16T02:34:53.971Z,8.54
2023-04-16T02:38:39.667Z,8.53
2023-04-16T02:42:16.983Z,8.54
2023-04-16T02:45:53.963Z,8.58
2023-04-16T02:49:31.700Z,8.62
2023-04-16T02:53:12.982Z,8.60
2023-04-16T02:56:47.456Z,8.57
2023-04-16T03:00:25.053Z,8.56
2023-04-16T03:04:12.515Z,8.61
2023-04-16T03:07:43.721Z,8.66
2023-04-16T03:11:18.008Z,8.69
2023-04-16T03:14:55.842Z,8.68
2023-04-16T03:18:55.411Z,8.70
2023-04-16T03:22:18.177Z,8.73
2023-04-16T03:26:00.747Z,8.72
2023-04-16T03:29:44.607Z,8.71
2023-04-16T03:33:47.478Z,8.75
2023-04-16T03:37:22.456Z,8.78
2023-04-16T03:40:54.644Z,8.81
2023-04-16T03:44:22.560Z,8.78
2023-04-16T03:48:00.274Z,8.75
2023-04-16T03:51:52.682Z,8.71
2023-04-16T03:55:19.568Z,8.66
2023-04-16T03:58:54.085Z,8.62
2023-04-16T04:02:34.651Z,8.55
2023-04-16T04:06:12.394Z,8.53
2023-04-16T04:09:46.457Z,8.56
2023-04-16T04:13:41.991Z,8.61
2023-04-16T04:17:02.791Z,8.64
2023-04-16T04:20:43.039Z,8.62
2023-04-16T04:24:17.354Z,8.62
2023-04-16T04:27:57.066Z,8.66
2023-04-16T04:31:42.972Z,8.72
2023-04-16T04:35:11.503Z,8.79
2023-04-16T04:38:48.012Z,8.86
2023-04-16T04:42:24.300Z,8.91
2023-04-16T04:46:09.452Z,8.96
2023-04-16T04:49:47.260Z,9.00
2023-04-16T04:53:24.897Z,9.03
2023-04-16T04:57:02.570Z,9.08
2023-04-16T05:00:50.382Z,9.16
2023-04-16T05:04:34.890Z,9.27
2023-04-16T05:07:56.663Z,9.35
2023-04-16T05:11:36.571Z,9.38
2023-04-16T05:15:11.932Z,9.37
2023-04-16T05:18:58.022Z,9.36
2023-04-16T05:22:44.523Z,9.39
2023-04-16T05:26:11.056Z,9.35
2023-04-16T05:30:03.734Z,9.36
2023-04-16T05:33:34.917Z,9.37
2023-04-16T05:37:14.661Z,9.42
2023-04-16T05:41:09.098Z,9.42
2023-04-16T05:44:25.539Z,9.43
2023-04-16T05:48:21.207Z,9.46
2023-04-16T05:51:49.119Z,9.47
2023-04-16T05:55:23.813Z,9.48
2023-04-16T05:59:09.066Z,9.56
2023-04-16T06:03:11.171Z,9.63
2023-04-16T06:06:21.809Z,9.63
2023-04-16T06:10:04.713Z,9.65
2023-04-16T06:13:47.604Z,9.70
2023-04-16T06:17:32.523Z,9.82
2023-04-16T06:21:08.603Z,9.95
2023-04-16T06:25:10.804Z,10.00
2023-04-16T06:28:46.810Z,10.06
2023-04-16T06:32:18.744Z,10.23
2023-04-16T06:36:01.053Z,10.40
2023-04-16T06:39:23.986Z,10.50
2023-04-16T06:43:05.200Z,10.56
2023-04-16T06:46:43.154Z,10.61
2023-04-16T06:50:32.142Z,10.62
2023-04-16T06:54:10.286Z,10.62
2023-04-16T06:57:30.624Z,10.71
2023-04-16T07:01:14.287Z,10.74
2023-04-16T07:04:58.816Z,10.73
2023-04-16T07:08:36.910Z,10.77
2023-04-16T07:12:24.442Z,10.83
2023-04-16T07:15:55.672Z,10.91
2023-04-16T07:19:32.597Z,10.99
2023-04-16T07:23:20.855Z,11.09
2023-04-16T07:27:09.713Z,11.20
2023-04-16T07:30:34.332Z,11.27
2023-04-16T07:34:20.689Z,11.32
2023-04-16T07:37:55.211Z,11.33
2023-04-16T07:41:40.818Z,11.33
2023-04-16T07:45:17.961Z,11.39
2023-04-16T07:48:55.545Z,11.42
2023-04-16T07:52:45.386Z,11.47
2023-04-16T07:56:27.841Z,11.54
2023-04-16T07:59:55.985Z,11.62
2023-04-16T08:03:31.822Z,11.61
2023-04-16T08:07:37.447Z,11.59
2023-04-16T08:10:56.045Z,11.64
2023-04-16T08:14:33.172Z,11.69
2023-04-16T08:18:15.688Z,11.75
2023-04-16T08:21:46.620Z,11.85
2023-04-16T08:25:30.220Z,11.93
2023-04-16T08:29:15.955Z,11.99
2023-04-16T08:32:50.830Z,12.08
2023-04-16T08:36:50.138Z,12.25
2023-04-16T08:40:14.087Z,12.39
2023-04-16T08:44:09.359Z,12.56
2023-04-16T08:47:31.893Z,12.71
2023-04-16T08:51:07.113Z,12.81
2023-04-16T08:55:13.362Z,12.82
2023-04-16T08:58:23.732Z,12.87
2023-04-16T09:02:01.012Z,12.94
2023-04-16T09:05:57.318Z,13.01
2023-04-16T09:09:23.748Z,13.08
2023-04-16T09:13:09.563Z,13.16
2023-04-16T09:16:48.545Z,13.27
2023-04-16T09:20:24.984Z,13.39
2023-04-16T09:24:02.548Z,13.55
2023-04-16T09:27:40.800Z,13.77
2023-04-16T09:31:18.815Z,13.91
2023-04-16T09:35:02.485Z,14.09
2023-04-16T09:38:54.909Z,14.27
2023-04-16T09:42:41.067Z,14.45
2023-04-16T09:46:18.642Z,14.58
2023-04-16T09:50:19.613Z,14.64
2023-04-16T09:54:05.378Z,14.61
2023-04-16T09:57:18.704Z,14.64
2023-04-16T10:01:06.066Z,14.72
2023-04-16T10:05:18.127Z,14.80
2023-04-16T10:08:38.364Z,14.86
2023-04-16T10:12:06.177Z,14.84
2023-04-16T10:16:00.752Z,14.82
2023-04-16T10:19:31.623Z,14.82
2023-04-16T10:23:24.245Z,14.82
2023-04-16T10:26:54.918Z,14.82
2023-04-16T10:30:20.485Z,14.79
2023-04-16T10:34:05.145Z,14.80
2023-04-16T10:38:22.885Z,14.86
2023-04-16T10:41:22.617Z,14.89
2023-04-16T10:45:31.192Z,14.83
2023-04-16T10:48:50.446Z,14.80
2023-04-16T10:52:25.155Z,14.81
2023-04-16T10:56:11.349Z,14.85
2023-04-16T10:59:39.930Z,14.89
2023-04-16T11:03:46.126Z,14.93
2023-04-16T11:07:05.624Z,15.02
2023-04-16T11:10:31.473Z,15.20
2023-04-16T11:14:07.427Z,15.32
2023-04-16T11:17:53.215Z,15.34
2023-04-16T11:21:31.886Z,15.25
2023-04-16T11:25:25.977Z,15.10
2023-04-16T11:28:45.187Z,15.00
2023-04-16T11:32:25.094Z,14.92
2023-04-16T11:36:09.847Z,14.87
2023-04-16T11:39:55.378Z,14.98
2023-04-16T11:43:32.287Z,15.11
2023-04-16T11:47:09.711Z,15.22
2023-04-16T11:50:59.298Z,15.32
2023-04-16T11:54:57.164Z,15.38
2023-04-16T11:58:26.600Z,15.44
2023-04-16T12:01:50.061Z,15.44
2023-04-16T12:05:32.853Z,15.31
2023-04-16T12:09:35.665Z,15.30
2023-04-16T12:13:16.136Z,15.30
2023-04-16T12:16:49.907Z,15.39
2023-04-16T12:20:14.112Z,15.49
2023-04-16T12:23:48.167Z,15.53
2023-04-16T12:27:46.804Z,15.61
2023-04-16T12:31:40.766Z,15.68
2023-04-16T12:35:10.512Z,15.65
2023-04-16T12:38:46.987Z,15.52
2023-04-16T12:42:23.695Z,15.49
2023-04-16T12:46:23.224Z,15.54
2023-04-16T12:49:44.660Z,15.63
2023-04-16T12:53:29.141Z,15.82
2023-04-16T12:57:38.765Z,16.00
2023-04-16T13:00:49.406Z,16.03
2023-04-16T13:04:44.356Z,16.09
2023-04-16T13:08:29.103Z,16.16
2023-04-16T13:11:47.635Z,16.13
2023-04-16T13:15:30.517Z,16.06
2023-04-16T13:19:19.205Z,16.03
2023-04-16T13:22:50.930Z,16.12
2023-04-16T13:26:33.452Z,16.22
2023-04-16T13:30:19.385Z,16.22
2023-04-16T13:34:11.730Z,16.13
2023-04-16T13:37:33.765Z,16.18
2023-04-16T13:41:21.118Z,16.20
2023-04-16T13:44:53.063Z,16.28
2023-04-16T13:48:25.769Z,16.33
2023-04-16T13:52:10.230Z,16.42
2023-04-16T13:55:56.987Z,16.59
2023-04-16T13:59:35.650Z,16.69
2023-04-16T14:03:03.569Z,16.79
2023-04-16T14:06:41.768Z,16.79
2023-04-16T14:10:19.473Z,16.83
2023-04-16T14:14:04.490Z,16.95
2023-04-16T14:17:49.167Z,17.12
2023-04-16T14:21:12.025Z,17.21
2023-04-16T14:24:56.752Z,17.18
2023-04-16T14:28:33.559Z,17.30
2023-04-16T14:32:19.203Z,17.48
2023-04-16T14:35:57.501Z,17.60
2023-04-16T14:39:33.825Z,17.54
2023-04-16T14:43:28.209Z,17.48
2023-04-16T14:46:49.014Z,17.46
2023-04-16T14:51:00.591Z,17.36
2023-04-16T14:54:27.455Z,17.22
2023-04-16T14:57:50.105Z,17.05
2023-04-16T15:01:26.313Z,16.97
2023-04-16T15:05:12.645Z,16.97
2023-04-16T15:08:49.689Z,16.96
2023-04-16T15:12:26.580Z,16.92
2023-04-16T15:16:05.518Z,16.89
2023-04-16T15:19:51.151Z,16.91
2023-04-16T15:23:46.577Z,16.95
2023-04-16T15:26:55.265Z,16.89
2023-04-16T15:31:04.797Z,16.79
2023-04-16T15:34:19.629Z,16.70
2023-04-16T15:37:56.799Z,16.57
2023-04-16T15:41:36.284Z,16.47
2023-04-16T15:45:11.484Z,16.31
2023-04-16T15:48:58.506Z,16.21
2023-04-16T15:52:26.189Z,16.06
2023-04-16T15:56:05.383Z,15.93
2023-04-16T16:00:06.536Z,15.86
2023-04-16T16:03:20.183Z,15.84
2023-04-16T16:06:55.753Z,15.78
2023-04-16T16:10:41.028Z,15.68
2023-04-16T16:14:28.017Z,15.59
2023-04-16T16:17:57.622Z,15.52
2023-04-16T16:21:41.278Z,15.43
2023-04-16T16:25:25.280Z,15.30
2023-04-16T16:29:09.029Z,15.16
2023-04-16T16:32:52.839Z,15.03
2023-04-16T16:36:49.744Z,14.93
2023-04-16T16:40:18.956Z,14.87
2023-04-16T16:43:56.163Z,14.76
2023-04-16T16:47:38.704Z,14.64
2023-04-16T16:51:06.577Z,14.52
2023-04-16T16:54:50.147Z,14.38
2023-04-16T16:58:51.536Z,14.25
2023-04-16T17:02:21.289Z,14.12
2023-04-16T17:05:48.390Z,13.97
2023-04-16T17:09:42.933Z,13.85
2023-04-16T17:13:13.721Z,13.71
2023-04-16T17:16:49.835Z,13.57
2023-04-16T17:20:34.472Z,13.41
2023-04-16T17:24:10.653Z,13.25
2023-04-16T17:27:55.764Z,13.13
2023-04-16T17:31:34.317Z,13.02
2023-04-16T17:35:13.803Z,12.90
2023-04-16T17:39:00.069Z,12.78
2023-04-16T17:42:37.882Z,12.66
2023-04-16T17:46:13.935Z,12.55
2023-04-16T17:49:58.486Z,12.46
2023-04-16T17:53:42.589Z,12.40
2023-04-16T17:57:27.213Z,12.35
2023-04-16T18:01:29.357Z,12.28
2023-04-16T18:04:43.042Z,12.21
2023-04-16T18:08:38.162Z,12.13
2023-04-16T18:11:59.104Z,12.06
2023-04-16T18:15:53.531Z,12.01
2023-04-16T18:19:11.875Z,11.97
2023-04-16T18:22:54.403Z,11.87
2023-04-16T18:26:47.274Z,11.75
2023-04-16T18:30:33.159Z,11.70
2023-04-16T18:33:57.851Z,11.70
2023-04-16T18:37:50.070Z,11.68
2023-04-16T18:41:09.947Z,11.64
2023-04-16T18:48:26.256Z,11.52
2023-04-16T18:52:04.032Z,11.46
2023-04-16T18:56:06.386Z,11.43
2023-04-16T18:59:16.557Z,11.41
2023-04-16T19:03:11.347Z,11.36
2023-04-16T19:07:05.651Z,11.30
2023-04-16T19:10:16.669Z,11.27
2023-04-16T19:14:05.918Z,11.22
2023-04-16T19:17:48.646Z,11.17
2023-04-16T19:21:11.004Z,11.13
2023-04-16T19:25:04.711Z,11.11
2023-04-16T19:28:26.531Z,11.06
2023-04-16T19:32:03.069Z,11.02
2023-04-16T19:35:46.252Z,10.97
2023-04-16T19:39:33.976Z,10.89
2023-04-16T19:42:54.973Z,10.85
2023-04-16T19:46:39.613Z,10.82
2023-04-16T19:50:17.505Z,10.80
2023-04-16T19:54:13.155Z,10.77
2023-04-16T19:57:39.772Z,10.73
2023-04-16T20:01:28.300Z,10.69
2023-04-16T20:04:55.203Z,10.67
2023-04-16T20:08:33.245Z,10.64
2023-04-16T20:12:09.335Z,10.58
2023-04-16T20:16:12.894Z,10.53
2023-04-16T20:19:33.714Z,10.49
2023-04-16T20:23:16.428Z,10.45
2023-04-16T20:27:19.133Z,10.41
2023-04-16T20:30:39.794Z,10.39
2023-04-16T20:34:24.400Z,10.38
2023-04-16T20:38:10.097Z,10.34
2023-04-16T20:41:56.297Z,10.33
2023-04-16T20:45:15.643Z,10.32
2023-04-16T20:48:58.297Z,10.29
2023-04-16T20:52:42.469Z,10.24
2023-04-16T20:56:34.957Z,10.17
2023-04-16T21:00:09.440Z,10.11
2023-04-16T21:03:41.797Z,10.08
2023-04-16T21:07:27.683Z,10.05
2023-04-16T21:11:21.266Z,10.00
2023-04-16T21:14:42.944Z,9.96
2023-04-16T21:18:19.665Z,9.93
2023-04-16T21:22:04.657Z,9.89
2023-04-16T21:25:56.813Z,9.91
2023-04-16T21:29:19.802Z,9.91
2023-04-16T21:33:21.314Z,9.89
2023-04-16T21:36:40.624Z,9.87
2023-04-16T21:40:23.618Z,9.81
2023-04-16T21:44:09.396Z,9.74
2023-04-16T21:47:47.139Z,9.66
2023-04-16T21:51:29.289Z,9.59
2023-04-16T21:55:01.489Z,9.54
2023-04-16T21:58:55.936Z,9.52
2023-04-16T22:02:34.038Z,9.53
2023-04-16T22:06:05.534Z,9.50
2023-04-16T22:09:32.427Z,9.46
2023-04-16T22:13:12.709Z,9.44
2023-04-16T22:16:49.942Z,9.41
2023-04-16T22:20:25.730Z,9.37
2023-04-16T22:24:03.518Z,9.36
2023-04-16T22:27:49.158Z,9.40
2023-04-16T22:31:25.913Z,9.43
2023-04-16T22:35:03.378Z,9.43
2023-04-16T22:38:47.900Z,9.42
2023-04-16T22:42:30.613Z,9.44
2023-04-16T22:46:32.375Z,9.43
2023-04-16T22:50:01.034Z,9.42
2023-04-16T22:53:30.960Z,9.40
2023-04-16T22:57:09.768Z,9.39
2023-04-16T23:00:48.010Z,9.39
2023-04-16T23:04:23.780Z,9.36
2023-04-16T23:08:01.981Z,9.34
2023-04-16T23:11:39.986Z,9.36
2023-04-16T23:15:17.471Z,9.31
2023-04-16T23:18:54.595Z,9.29
2023-04-16T23:22:33.318Z,9.29
2023-04-16T23:26:09.929Z,9.30
2023-04-16T23:29:51.256Z,9.33
2023-04-16T23:33:23.297Z,9.34
2023-04-16T23:37:07.812Z,9.33
2023-04-16T23:41:03.918Z,9.31
2023-04-16T23:44:21.447Z,9.34
2023-04-16T23:48:08.110Z,9.37
2023-04-16T23:51:41.712Z,9.33
2023-04-16T23:55:36.249Z,9.30
2023-04-16T23:59:01.940Z,9.27
